Monday, October 23, 2017, 1:22 PM EDT
Back to Local

KFWN, Sussex Airport

Location: Sussex, NJ, United States Lat: 41.2
Local Time: 1:22 PM EDT (17:22 GMT) Lon: -74.633
Time Zone: US/Eastern Elev: 419 ft

Show me the last for .
Show Decoded

2017-10-23 13:05 METAR KFWN 231705Z AUTO 16007KT 10SM SCT029 BKN035 OVC055 22/16 A3020 RMK AO2
                 T02170161 =
2017-10-23 12:53 METAR KFWN 231653Z AUTO VRB04KT 10SM BKN029 BKN035 OVC055 21/16 A3021 RMK AO2
                 SLP230 T02110161 =
2017-10-23 12:07 METAR KFWN 231607Z AUTO VRB06KT 10SM BKN027 BKN040 OVC050 21/16 A3023 RMK AO2
                 T02110161 =
2017-10-23 11:53 METAR KFWN 231553Z AUTO 15007KT 10SM SCT024 OVC050 21/16 A3023 RMK AO2 SLP237
                 T02060156 =
2017-10-23 11:31 METAR KFWN 231531Z AUTO VRB04KT 10SM SCT022 BKN039 OVC050 20/16 A3024 RMK AO2
                 T02000161 =
2017-10-23 10:53 METAR KFWN 231453Z AUTO 00000KT 10SM OVC017 18/15 A3026 RMK AO2 SLP245 T01830150
                 58017 =
2017-10-23 10:28 METAR KFWN 231428Z AUTO 00000KT 10SM OVC015 17/14 A3027 RMK AO2 T01670139 =
2017-10-23 09:53 METAR KFWN 231353Z AUTO 00000KT 10SM OVC013 15/13 A3028 RMK AO2 SLP255 T01500128
                 =
2017-10-23 08:53 METAR KFWN 231253Z AUTO 00000KT 10SM OVC010 14/12 A3030 RMK AO2 SLP262 T01390117
                 =
2017-10-23 08:48 METAR KFWN 231248Z AUTO 00000KT 10SM OVC010 14/12 A3031 RMK AO2 =
2017-10-23 07:53 METAR KFWN 231153Z AUTO 00000KT 10SM OVC007 13/11 A3030 RMK AO2 SLP261 T01280111
                 10128 20083 56009 =
2017-10-23 06:53 METAR KFWN 231053Z AUTO 00000KT 10SM OVC009 12/11 A3031 RMK AO2 SLP263 T01220106
                 =
2017-10-23 06:27 METAR KFWN 231027Z AUTO 01003KT 10SM OVC009 12/11 A3031 RMK AO2 T01170106 =
2017-10-23 05:53 METAR KFWN 230953Z AUTO 00000KT 10SM OVC011 11/11 A3032 RMK AO2 SLP266 T01110106
                 =
2017-10-23 05:15 METAR KFWN 230915Z AUTO 00000KT 10SM OVC014 11/10 A3032 RMK AO2 T01110100 =
2017-10-23 04:53 METAR KFWN 230853Z AUTO 00000KT 10SM OVC015 11/10 A3033 RMK AO2 SLP269 T01060100
                 56005 =
2017-10-23 04:40 METAR KFWN 230840Z AUTO 00000KT 10SM BKN015 OVC029 10/09 A3032 RMK AO2 T01000094
                 =
2017-10-23 04:14 METAR KFWN 230814Z AUTO 00000KT 10SM OVC030 10/09 A3032 RMK AO2 T01000094 =
2017-10-23 03:53 METAR KFWN 230753Z AUTO 00000KT 10SM OVC026 10/09 A3033 RMK AO2 SLP268 T01000094
                 =
2017-10-23 02:53 METAR KFWN 230653Z AUTO 00000KT 10SM OVC021 09/09 A3033 RMK AO2 SLP271 T00940089
                 =
2017-10-23 01:53 METAR KFWN 230553Z AUTO 00000KT 10SM OVC020 09/09 A3034 RMK AO2 SLP274 T00890089
                 10133 20078 58010 =
2017-10-23 01:25 METAR KFWN 230525Z AUTO 00000KT 10SM BKN016 08/08 A3036 RMK AO2 T00830078 =
2017-10-23 00:53 METAR KFWN 230453Z AUTO 00000KT 10SM FEW017 08/08 A3037 RMK AO2 SLP282 T00780078
                 402500033 =
2017-10-22 23:53 METAR KFWN 230353Z AUTO 00000KT 10SM CLR 09/08 A3037 RMK AO2 SLP284 T00890078 =
2017-10-22 22:53 METAR KFWN 230253Z AUTO 00000KT 10SM CLR 09/09 A3037 RMK AO2 SLP285 T00890089
                 51006 =
2017-10-22 21:53 METAR KFWN 230153Z AUTO 00000KT 10SM CLR 11/09 A3037 RMK AO2 SLP286 T01060094 =
2017-10-22 20:53 METAR KFWN 230053Z AUTO 00000KT 10SM CLR 12/09 A3036 RMK AO2 SLP281 T01220094 =
2017-10-22 19:53 METAR KFWN 222353Z AUTO 00000KT 10SM CLR 13/09 A3035 RMK AO2 SLP279 T01330094
                 10250 20133 53007 =
2017-10-22 18:53 METAR KFWN 222253Z AUTO 00000KT 10SM CLR 16/09 A3034 RMK AO2 SLP276 T01560094 =
2017-10-22 17:53 METAR KFWN 222153Z AUTO 00000KT 10SM CLR 19/09 A3034 RMK AO2 SLP273 T01940089 =
2017-10-22 16:53 METAR KFWN 222053Z AUTO 21005KT 10SM CLR 23/06 A3033 RMK AO2 SLP270 T02280061
                 56006 =
2017-10-22 15:53 METAR KFWN 221953Z AUTO 18005KT 10SM CLR 24/06 A3034 RMK AO2 SLP273 T02390056 =
2017-10-22 14:53 METAR KFWN 221853Z AUTO 17005KT 10SM CLR 24/07 A3034 RMK AO2 SLP272 T02390067 =
2017-10-22 13:53 METAR KFWN 221753Z AUTO 22006KT 10SM CLR 24/08 A3035 RMK AO2 SLP276 60000
                 T02440083 10244 20039 58017 =

Support USWX by starting your Amazon purchase here.